Time;durP1;ratioP1;P1;durP2;ratioP2;P2;SDS_P1;SDS_P2;PMS_P1;PMS_P2;Temp;Humidity;BMP_temperature;BMP_pressure;BME280_temperature;BME280_humidity;BME280_pressure;Samples;Min_cycle;Max_cycle;Signal;HPM_P1;HPM_P2
2021/01/04 00:02:14;;;;;;;;;;;;;;;;;;5048934;28;13786;-49
2021/01/04 00:04:51;;;;;;;;;;;;;;;;;;5058022;28;14085;-49
2021/01/04 00:07:29;;;;;;;;;;;;;;;;;;5043142;28;4138;-54
2021/01/04 00:10:13;;;;;;;;;;;;;;;;;;5039785;28;6990;-51
2021/01/04 00:12:47;;;;;;;;;;;;;;;;;;5046382;28;8525;-51
2021/01/04 00:15:18;;;;;;;;;;;;;;;;;;5046289;28;8623;-50
2021/01/04 00:17:44;;;;;;;;;;;;;;;;;;5049825;28;9301;-51
2021/01/04 00:20:17;;;;;;;;;;;;;;;;;;5049276;28;12668;-49
2021/01/04 00:22:51;;;;;;;;;;;;;;;;;;5048036;28;12422;-52
2021/01/04 00:25:29;;;;;;;;;;;;;;;;;;5037366;28;4203;-49
2021/01/04 00:28:02;;;;;;;;;;;;;;;;;;5050301;28;9730;-52
2021/01/04 00:30:31;;;;;;;;;;;;;;;;;;5049457;28;13415;-49
2021/01/04 00:32:57;;;;;;;;;;;;;;;;;;5049676;28;12404;-53
2021/01/04 00:35:24;;;;;;;;;;;;;;;;;;5050591;28;7797;-50
2021/01/04 00:37:55;;;;;;;;;;;;;;;;;;5058352;28;7724;-50
2021/01/04 00:40:32;;;;;;;;;;;;;;;;;;5048074;28;4209;-54
2021/01/04 00:42:58;;;;;;;;;;;;;;;;;;5051091;28;4025;-52
2021/01/04 00:45:28;;;;;;;;;;;;;;;;;;5073327;28;8962;-53
2021/01/04 00:48:08;;;;;;;;;;;;;;;;;;5072306;28;10475;-50
2021/01/04 00:50:57;;;;;;;;;;;;;;;;;;5069441;28;13148;-50
2021/01/04 00:53:30;;;;;;;;;;;;;;;;;;5051931;28;14576;-53
2021/01/04 00:55:55;;;;;;;;;;;;;;;;;;5058356;28;14673;-50
2021/01/04 00:58:24;;;;;;;;;;;;;;;;;;5071738;28;4130;-51
2021/01/04 01:01:24;;;;;;;;;;;;;;;;;;5069434;28;10986;-51
2021/01/04 01:03:55;;;;;;;;;;;;;;;;;;4987564;28;7522;-51
2021/01/04 01:06:20;;;;;;;;;;;;;;;;;;4985388;28;9443;-50
2021/01/04 01:08:46;;;;;;;;;;;;;;;;;;4983426;28;15592;-51
2021/01/04 01:11:14;;;;;;;;;;;;;;;;;;4991052;28;14004;-50
2021/01/04 01:13:54;;;;;;;;;;;;;;;;;;4986694;28;13614;-51
2021/01/04 01:16:23;;;;;;;;;;;;;;;;;;4991229;28;4513;-50
2021/01/04 01:18:48;;;;;;;;;;;;;;;;;;4987419;28;8390;-53
2021/01/04 01:21:14;;;;;;;;;;;;;;;;;;4995983;28;6774;-52
2021/01/04 01:23:41;;;;;;;;;;;;;;;;;;4984740;28;9535;-54
2021/01/04 01:26:15;;;;;;;;;;;;;;;;;;4988045;28;8262;-51
2021/01/04 01:28:59;;;;;;;;;;;;;;;;;;4983649;28;11692;-50
2021/01/04 01:31:27;;;;;;;;;;;;;;;;;;4985013;28;8332;-50
2021/01/04 01:34:11;;;;;;;;;;;;;;;;;;4989305;28;7578;-50
2021/01/04 01:36:49;;;;;;;;;;;;;;;;;;4986677;28;7497;-50
2021/01/04 01:39:33;;;;;;;;;;;;;;;;;;5066330;28;14020;-51
2021/01/04 01:42:07;;;;;;;;;;;;;;;;;;5064981;28;12295;-51
2021/01/04 01:45:02;;;;;;;;;;;;;;;;;;5057815;28;6750;-49
2021/01/04 01:47:35;;;;;;;;;;;;;;;;;;5024128;28;10806;-52
2021/01/04 01:50:05;;;;;;;;;;;;;;;;;;5014516;28;8792;-54
2021/01/04 01:52:37;;;;;;;;;;;;;;;;;;5020492;28;16832;-50
2021/01/04 01:55:05;;;;;;;;;;;;;;;;;;5025069;28;4335;-49
2021/01/04 01:57:36;;;;;;;;;;;;;;;;;;5023826;28;14254;-50
2021/01/04 02:00:20;;;;;;;;;;;;;;;;;;5025258;28;14412;-53
2021/01/04 02:02:54;;;;;;;;;;;;;;;;;;5022739;28;10822;-51
2021/01/04 02:05:19;;;;;;;;;;;;;;;;;;5021081;28;15210;-49
2021/01/04 02:07:47;;;;;;;;;;;;;;;;;;5015947;28;8706;-51
2021/01/04 02:10:14;;;;;;;;;;;;;;;;;;5019098;28;5044;-50
2021/01/04 02:12:45;;;;;;;;;;;;;;;;;;5021697;28;15178;-53
2021/01/04 02:15:13;;;;;;;;;;;;;;;;;;5022997;28;7449;-52
2021/01/04 02:17:57;;;;;;;;;;;;;;;;;;5023288;28;16765;-49
2021/01/04 02:20:37;;;;;;;;;;;;;;;;;;5025668;28;13861;-53
2021/01/04 02:23:21;;;;;;;;;;;;;;;;;;5026727;28;13193;-50
2021/01/04 02:25:48;;;;;;;;;;;;;;;;;;5066899;28;14884;-52
2021/01/04 02:28:15;;;;;;;;;;;;;;;;;;5065925;28;4146;-53
2021/01/04 02:30:41;;;;;;;;;;;;;;;;;;5065382;28;14027;-50
2021/01/04 02:33:09;;;;;;;;;;;;;;;;;;5065561;28;11354;-55
2021/01/04 02:35:37;;;;;;;;;;;;;;;;;;5059117;28;14754;-52
2021/01/04 02:38:02;;;;;;;;;;;;;;;;;;5066470;28;7455;-51
2021/01/04 02:40:27;;;;;;;;;;;;;;;;;;5065945;28;10782;-51
2021/01/04 02:42:53;;;;;;;;;;;;;;;;;;5049078;28;7139;-51
2021/01/04 02:45:21;;;;;;;;;;;;;;;;;;5064193;28;8304;-51
2021/01/04 02:48:04;;;;;;;;;;;;;;;;;;5058554;28;16477;-49
2021/01/04 02:50:33;;;;;;;;;;;;;;;;;;5062754;28;13615;-50
2021/01/04 02:53:13;;;;;;;;;;;;;;;;;;5063445;28;7164;-49
2021/01/04 02:55:43;;;;;;;;;;;;;;;;;;5065142;28;15214;-50
2021/01/04 02:58:15;;;;;;;;;;;;;;;;;;5065056;28;4187;-49
2021/01/04 03:00:44;;;;;;;;;;;;;;;;;;5060711;28;14020;-51
2021/01/04 03:03:09;;;;;;;;;;;;;;;;;;5065155;28;12800;-53
2021/01/04 03:05:34;;;;;;;;;;;;;;;;;;5050230;28;15727;-50
2021/01/04 03:08:01;;;;;;;;;;;;;;;;;;5065988;28;13686;-49
2021/01/04 03:10:31;;;;;;;;;;;;;;;;;;5066787;28;14522;-49
2021/01/04 03:13:02;;;;;;;;;;;;;;;;;;5066885;28;7057;-52
2021/01/04 03:15:33;;;;;;;;;;;;;;;;;;5066184;28;8875;-53
2021/01/04 03:18:04;;;;;;;;;;;;;;;;;;5064753;28;10850;-51
2021/01/04 03:20:30;;;;;;;;;;;;;;;;;;5075089;28;14392;-50
2021/01/04 03:22:55;;;;;;;;;;;;;;;;;;5064793;28;6791;-53
2021/01/04 03:25:30;;;;;;;;;;;;;;;;;;5067110;28;4166;-53
2021/01/04 03:27:55;;;;;;;;;;;;;;;;;;5068245;28;6497;-52
2021/01/04 03:30:21;;;;;;;;;;;;;;;;;;5065026;28;10806;-50
2021/01/04 03:32:47;;;;;;;;;;;;;;;;;;5058591;28;14475;-52
2021/01/04 03:35:12;;;;;;;;;;;;;;;;;;5065206;28;14083;-50
2021/01/04 03:37:38;;;;;;;;;;;;;;;;;;5059362;28;6956;-54
2021/01/04 03:40:05;;;;;;;;;;;;;;;;;;5066296;28;9651;-50
2021/01/04 03:42:30;;;;;;;;;;;;;;;;;;5048095;28;14324;-53
2021/01/04 03:44:55;;;;;;;;;;;;;;;;;;5056188;28;9901;-53
2021/01/04 03:47:20;;;;;;;;;;;;;;;;;;5056792;28;9510;-50
2021/01/04 03:49:46;;;;;;;;;;;;;;;;;;5066025;28;10800;-54
2021/01/04 03:52:11;;;;;;;;;;;;;;;;;;5069487;28;4248;-51
2021/01/04 03:54:37;;;;;;;;;;;;;;;;;;5066269;28;14080;-54
2021/01/04 03:57:02;;;;;;;;;;;;;;;;;;5069429;28;15088;-54
2021/01/04 03:59:28;;;;;;;;;;;;;;;;;;5059059;28;8223;-52
2021/01/04 04:01:54;;;;;;;;;;;;;;;;;;5064534;28;12855;-51
2021/01/04 04:04:20;;;;;;;;;;;;;;;;;;5065806;28;4109;-50
2021/01/04 04:06:45;;;;;;;;;;;;;;;;;;5068731;28;8137;-52
2021/01/04 04:09:12;;;;;;;;;;;;;;;;;;5071400;28;11604;-54
2021/01/04 04:11:37;;;;;;;;;;;;;;;;;;5069530;28;15245;-48
2021/01/04 04:14:03;;;;;;;;;;;;;;;;;;5068007;28;11465;-54
2021/01/04 04:16:28;;;;;;;;;;;;;;;;;;5061866;28;14419;-51
2021/01/04 04:18:53;;;;;;;;;;;;;;;;;;5069668;28;6981;-50
2021/01/04 04:21:18;;;;;;;;;;;;;;;;;;5064122;28;6829;-50
2021/01/04 04:23:44;;;;;;;;;;;;;;;;;;5065211;28;12731;-54
2021/01/04 04:26:35;;;;;;;;;;;;;;;;;;5068867;28;15124;-51
2021/01/04 04:29:01;;;;;;;;;;;;;;;;;;5062383;28;8271;-51
2021/01/04 04:31:26;;;;;;;;;;;;;;;;;;5070303;28;5700;-51
2021/01/04 04:33:52;;;;;;;;;;;;;;;;;;5070317;28;7499;-54
2021/01/04 04:36:22;;;;;;;;;;;;;;;;;;5071091;28;6695;-49
2021/01/04 04:38:47;;;;;;;;;;;;;;;;;;5068885;28;9485;-53
2021/01/04 04:41:39;;;;;;;;;;;;;;;;;;5066083;28;13513;-52
2021/01/04 04:44:14;;;;;;;;;;;;;;;;;;5061970;28;8612;-53
2021/01/04 04:46:48;;;;;;;;;;;;;;;;;;5067554;28;14275;-51
2021/01/04 04:49:27;;;;;;;;;;;;;;;;;;5068075;28;4039;-51
2021/01/04 04:52:08;;;;;;;;;;;;;;;;;;5069218;28;8077;-51
2021/01/04 04:54:41;;;;;;;;;;;;;;;;;;5062698;28;16545;-50
2021/01/04 04:57:23;;;;;;;;;;;;;;;;;;5061738;28;8618;-53
2021/01/04 04:59:57;;;;;;;;;;;;;;;;;;5067244;28;11308;-50
2021/01/04 05:02:37;;;;;;;;;;;;;;;;;;5066060;28;16168;-51
2021/01/04 05:05:02;;;;;;;;;;;;;;;;;;5067286;28;10298;-53
2021/01/04 05:07:37;;;;;;;;;;;;;;;;;;5067374;28;16088;-48
2021/01/04 05:10:05;;;;;;;;;;;;;;;;;;5068153;28;8691;-52
2021/01/04 05:12:41;;;;;;;;;;;;;;;;;;5067338;28;11337;-50
2021/01/04 05:15:13;;;;;;;;;;;;;;;;;;5063008;28;7132;-49
2021/01/04 05:18:14;;;;;;;;;;;;;;;;;;5067870;28;9251;-55
2021/01/04 05:21:05;;;;;;;;;;;;;;;;;;5006029;28;9568;-53
2021/01/04 05:23:49;;;;;;;;;;;;;;;;;;5016636;28;12049;-50
2021/01/04 05:26:33;;;;;;;;;;;;;;;;;;5006074;28;6850;-52
2021/01/04 05:29:05;;;;;;;;;;;;;;;;;;5005533;28;8678;-51
2021/01/04 05:31:30;;;;;;;;;;;;;;;;;;5007272;28;8800;-53
2021/01/04 05:33:59;;;;;;;;;;;;;;;;;;5007991;28;10950;-53
2021/01/04 05:36:43;;;;;;;;;;;;;;;;;;5006526;28;9449;-49
2021/01/04 05:39:24;;;;;;;;;;;;;;;;;;5005576;28;15358;-52
2021/01/04 05:42:07;;;;;;;;;;;;;;;;;;5004028;28;13795;-52
2021/01/04 05:44:42;;;;;;;;;;;;;;;;;;5006402;28;8232;-52
2021/01/04 05:47:20;;;;;;;;;;;;;;;;;;5002331;28;14098;-51
2021/01/04 05:49:47;;;;;;;;;;;;;;;;;;5012934;28;9322;-49
2021/01/04 05:52:15;;;;;;;;;;;;;;;;;;5007472;28;4242;-53
2021/01/04 05:54:41;;;;;;;;;;;;;;;;;;5035793;28;13202;-53
2021/01/04 05:57:13;;;;;;;;;;;;;;;;;;5065155;28;10213;-49
2021/01/04 05:59:49;;;;;;;;;;;;;;;;;;5060730;28;14386;-53
2021/01/04 06:02:34;;;;;;;;;;;;;;;;;;5066587;28;15723;-53
2021/01/04 06:05:16;;;;;;;;;;;;;;;;;;5060473;28;9240;-52
2021/01/04 06:07:43;;;;;;;;;;;;;;;;;;5062194;28;7456;-52
2021/01/04 06:10:17;;;;;;;;;;;;;;;;;;5068521;28;4158;-51
2021/01/04 06:12:45;;;;;;;;;;;;;;;;;;5062289;28;15005;-54
2021/01/04 06:15:10;;;;;;;;;;;;;;;;;;5057302;28;14354;-49
2021/01/04 06:17:43;;;;;;;;;;;;;;;;;;5063510;28;14867;-52
2021/01/04 06:20:12;;;;;;;;;;;;;;;;;;5065386;28;11984;-53
2021/01/04 06:22:37;;;;;;;;;;;;;;;;;;5067446;28;9840;-53
2021/01/04 06:25:05;;;;;;;;;;;;;;;;;;5068697;28;6897;-53
2021/01/04 06:27:33;;;;;;;;;;;;;;;;;;5062511;28;15493;-51
2021/01/04 06:30:01;;;;;;;;;;;;;;;;;;5067285;28;12646;-51
2021/01/04 06:32:28;;;;;;;;;;;;;;;;;;5064997;28;12921;-50
2021/01/04 06:34:55;;;;;;;;;;;;;;;;;;5069250;28;11332;-50
2021/01/04 06:37:25;;;;;;;;;;;;;;;;;;5065542;28;4176;-49
2021/01/04 06:40:05;;;;;;;;;;;;;;;;;;5064811;28;7192;-51
2021/01/04 06:42:38;;;;;;;;;;;;;;;;;;5066774;28;8622;-50
2021/01/04 06:45:19;;;;;;;;;;;;;;;;;;5066024;28;7792;-51
2021/01/04 06:47:47;;;;;;;;;;;;;;;;;;5059371;28;12834;-49
2021/01/04 06:50:34;;;;;;;;;;;;;;;;;;5063169;28;10281;-51
2021/01/04 06:52:59;;;;;;;;;;;;;;;;;;5056466;28;9410;-52
2021/01/04 06:55:42;;;;;;;;;;;;;;;;;;5063721;28;3919;-49
2021/01/04 06:58:08;;;;;;;;;;;;;;;;;;5062917;28;4077;-50
2021/01/04 07:00:35;;;;;;;;;;;;;;;;;;5066053;28;7867;-50
2021/01/04 07:03:19;;;;;;;;;;;;;;;;;;5062543;28;7145;-50
2021/01/04 07:05:56;;;;;;;;;;;;;;;;;;5066062;28;10961;-51
2021/01/04 07:08:27;;;;;;;;;;;;;;;;;;5063556;28;13650;-51
2021/01/04 07:11:21;;;;;;;;;;;;;;;;;;5070266;28;8597;-50
2021/01/04 07:13:59;;;;;;;;;;;;;;;;;;5066738;28;14488;-52
2021/01/04 07:16:39;;;;;;;;;;;;;;;;;;5061877;28;4133;-52
2021/01/04 07:19:21;;;;;;;;;;;;;;;;;;5067047;28;6883;-53
2021/01/04 07:21:56;;;;;;;;;;;;;;;;;;5058999;28;14938;-52
2021/01/04 07:24:47;;;;;;;;;;;;;;;;;;5062312;28;11931;-50
2021/01/04 07:27:22;;;;;;;;;;;;;;;;;;5008571;28;11523;-50
2021/01/04 07:30:17;;;;;;;;;;;;;;;;;;5002324;28;11067;-52
2021/01/04 07:32:45;;;;;;;;;;;;;;;;;;4968940;28;9181;-50
2021/01/04 07:35:21;;;;;;;;;;;;;;;;;;4974389;28;9554;-53
2021/01/04 07:38:05;;;;;;;;;;;;;;;;;;4969630;28;15309;-51
2021/01/04 07:40:36;;;;;;;;;;;;;;;;;;4966034;28;7354;-50
2021/01/04 07:46:01;;;;;;;;;;;;;;;;;;5096710;27;8330;-51
2021/01/04 07:48:49;;;;;;;;;;;;;;;;;;5075223;28;13525;-48
2021/01/04 07:51:33;;;;;;;;;;;;;;;;;;5076150;28;13254;-49
2021/01/04 07:54:13;;;;;;;;;;;;;;;;;;5076045;28;9800;-51
2021/01/04 07:56:39;;;;;;;;;;;;;;;;;;5076685;28;11639;-51
2021/01/04 07:59:23;;;;;;;;;;;;;;;;;;5090150;28;15358;-51
2021/01/04 08:02:03;;;;;;;;;;;;;;;;;;5077872;28;14295;-47
2021/01/04 08:04:28;;;;;;;;;;;;;;;;;;5081701;28;15344;-49
2021/01/04 08:06:53;;;;;;;;;;;;;;;;;;5072518;28;10725;-52
2021/01/04 08:09:37;;;;;;;;;;;;;;;;;;5071508;28;15857;-50
2021/01/04 08:12:21;;;;;;;;;;;;;;;;;;5076918;28;8772;-53
2021/01/04 08:14:54;;;;;;;;;;;;;;;;;;5078517;28;9581;-51
2021/01/04 08:17:22;;;;;;;;;;;;;;;;;;5072813;28;9672;-53
2021/01/04 08:19:49;;;;;;;;;;;;;;;;;;5067693;28;8752;-49
2021/01/04 08:22:28;;;;;;;;;;;;;;;;;;5082964;28;4040;-50
2021/01/04 08:25:01;;;;;;;;;;;;;;;;;;5077294;28;13034;-50
2021/01/04 08:27:32;;;;;;;;;;;;;;;;;;5073406;28;13304;-47
2021/01/04 08:30:00;;;;;;;;;;;;;;;;;;5076248;28;9571;-50
2021/01/04 08:32:34;;;;;;;;;;;;;;;;;;5066139;28;15338;-47
2021/01/04 08:35:10;;;;;;;;;;;;;;;;;;5069948;28;9399;-50
2021/01/04 08:37:38;;;;;;;;;;;;;;;;;;5083116;28;7947;-48
2021/01/04 08:40:18;;;;;;;;;;;;;;;;;;5081912;28;6984;-51
2021/01/04 08:42:44;;;;;;;;;;;;;;;;;;5076041;28;9679;-49
2021/01/04 08:45:11;;;;;;;;;;;;;;;;;;5067303;28;6850;-47
2021/01/04 08:47:43;;;;;;;;;;;;;;;;;;5058345;28;13978;-48
2021/01/04 08:50:27;;;;;;;;;;;;;;;;;;5058939;28;13223;-51
2021/01/04 08:52:55;;;;;;;;;;;;;;;;;;5057431;28;15990;-49
2021/01/04 08:55:28;;;;;;;;;;;;;;;;;;5056523;28;4204;-50
2021/01/04 08:57:54;;;;;;;;;;;;;;;;;;5045600;28;13771;-48
2021/01/04 09:00:28;;;;;;;;;;;;;;;;;;5035692;28;16680;-52
2021/01/04 09:02:56;;;;;;;;;;;;;;;;;;5037862;28;9317;-50
2021/01/04 09:05:34;;;;;;;;;;;;;;;;;;5047875;28;15814;-51
2021/01/04 09:07:59;;;;;;;;;;;;;;;;;;5028992;28;9643;-51
2021/01/04 09:10:46;;;;;;;;;;;;;;;;;;5039951;28;3938;-51
2021/01/04 09:13:31;;;;;;;;;;;;;;;;;;5042583;28;4137;-51
2021/01/04 09:16:07;;;;;;;;;;;;;;;;;;5051376;28;9687;-51
2021/01/04 09:18:39;;;;;;;;;;;;;;;;;;5043039;28;14919;-51
2021/01/04 09:21:22;;;;;;;;;;;;;;;;;;5038763;28;10786;-49
2021/01/04 09:23:47;;;;;;;;;;;;;;;;;;5038353;28;15350;-49
2021/01/04 09:26:23;;;;;;;;;;;;;;;;;;5052619;28;16577;-48
2021/01/04 09:29:01;;;;;;;;;;;;;;;;;;5027621;28;9805;-53
2021/01/04 09:31:26;;;;;;;;;;;;;;;;;;5045588;28;3526;-50
2021/01/04 09:33:51;;;;;;;;;;;;;;;;;;5038252;28;9645;-49
2021/01/04 09:36:21;;;;;;;;;;;;;;;;;;5024564;28;8539;-52
2021/01/04 09:38:47;;;;;;;;;;;;;;;;;;5034875;28;9695;-51
2021/01/04 09:41:13;;;;;;;;;;;;;;;;;;5044541;28;13737;-52
2021/01/04 09:43:39;;;;;;;;;;;;;;;;;;5036501;28;15495;-48
2021/01/04 09:46:25;;;;;;;;;;;;;;;;;;5035109;28;7261;-52
2021/01/04 09:49:00;;;;;;;;;;;;;;;;;;5039765;28;9584;-50
2021/01/04 09:51:30;;;;;;;;;;;;;;;;;;5034804;28;16076;-52
2021/01/04 09:54:00;;;;;;;;;;;;;;;;;;5035371;28;13368;-52
2021/01/04 09:56:28;;;;;;;;;;;;;;;;;;5036490;28;9713;-52
2021/01/04 09:59:05;;;;;;;;;;;;;;;;;;5037506;28;7619;-50
2021/01/04 10:01:31;;;;;;;;;;;;;;;;;;5042579;28;3918;-49
2021/01/04 10:03:58;;;;;;;;;;;;;;;;;;5037546;28;7621;-48
2021/01/04 10:06:25;;;;;;;;;;;;;;;;;;5034694;28;8745;-48
2021/01/04 10:08:51;;;;;;;;;;;;;;;;;;5032220;28;12199;-51
2021/01/04 10:11:19;;;;;;;;;;;;;;;;;;5035627;28;14600;-47
2021/01/04 10:13:44;;;;;;;;;;;;;;;;;;5049885;28;11814;-49
2021/01/04 10:16:13;;;;;;;;;;;;;;;;;;5043197;28;9699;-49
2021/01/04 10:18:39;;;;;;;;;;;;;;;;;;5035893;28;12338;-49
2021/01/04 10:21:05;;;;;;;;;;;;;;;;;;5040377;28;16233;-48
2021/01/04 10:23:34;;;;;;;;;;;;;;;;;;5043701;28;15651;-50
2021/01/04 10:26:01;;;;;;;;;;;;;;;;;;5016060;28;14687;-49
2021/01/04 10:28:34;;;;;;;;;;;;;;;;;;5044800;28;4243;-49
2021/01/04 10:31:03;;;;;;;;;;;;;;;;;;5035820;28;9273;-48
2021/01/04 10:33:34;;;;;;;;;;;;;;;;;;5033144;28;10567;-50
2021/01/04 10:36:08;;;;;;;;;;;;;;;;;;5033698;28;10912;-50
2021/01/04 10:38:36;;;;;;;;;;;;;;;;;;5029715;28;15924;-49
2021/01/04 10:41:07;;;;;;;;;;;;;;;;;;5036971;28;11121;-49
2021/01/04 10:43:32;;;;;;;;;;;;;;;;;;5044687;28;16652;-48
2021/01/04 10:45:58;;;;;;;;;;;;;;;;;;5036677;28;7388;-48
2021/01/04 10:48:24;;;;;;;;;;;;;;;;;;5033416;28;13200;-52
2021/01/04 10:50:58;;;;;;;;;;;;;;;;;;5039546;28;15580;-52
2021/01/04 10:53:26;;;;;;;;;;;;;;;;;;5041722;28;18226;-50
2021/01/04 10:55:58;;;;;;;;;;;;;;;;;;5044894;28;11101;-49
2021/01/04 10:58:27;;;;;;;;;;;;;;;;;;5040889;28;4421;-51
2021/01/04 11:00:55;;;;;;;;;;;;;;;;;;5052389;28;13803;-48
2021/01/04 11:03:20;;;;;;;;;;;;;;;;;;5033958;28;15308;-52
2021/01/04 11:05:49;;;;;;;;;;;;;;;;;;5040758;28;14828;-49
2021/01/04 11:08:23;;;;;;;;;;;;;;;;;;5030476;28;12809;-48
2021/01/04 11:10:57;;;;;;;;;;;;;;;;;;5038060;28;12528;-47
2021/01/04 11:13:30;;;;;;;;;;;;;;;;;;5039213;28;4175;-49
2021/01/04 11:16:04;;;;;;;;;;;;;;;;;;5046985;28;9528;-53
2021/01/04 11:18:30;;;;;;;;;;;;;;;;;;5039594;28;13322;-52
2021/01/04 11:20:56;;;;;;;;;;;;;;;;;;5037793;28;15181;-50
2021/01/04 11:23:21;;;;;;;;;;;;;;;;;;5042529;28;13311;-50
2021/01/04 11:25:46;;;;;;;;;;;;;;;;;;5012487;28;12811;-51
2021/01/04 11:28:12;;;;;;;;;;;;;;;;;;5043043;28;3967;-50
2021/01/04 11:30:37;;;;;;;;;;;;;;;;;;5047657;28;15353;-50
2021/01/04 11:33:03;;;;;;;;;;;;;;;;;;5022353;28;10970;-51
2021/01/04 11:35:30;;;;;;;;;;;;;;;;;;5040895;28;6667;-49
2021/01/04 11:37:56;;;;;;;;;;;;;;;;;;5041545;28;14429;-50
2021/01/04 11:40:21;;;;;;;;;;;;;;;;;;5055132;28;4171;-51
2021/01/04 11:42:46;;;;;;;;;;;;;;;;;;5033778;28;9340;-49
2021/01/04 11:45:13;;;;;;;;;;;;;;;;;;5030609;28;12640;-48
2021/01/04 11:47:38;;;;;;;;;;;;;;;;;;5033593;28;13028;-51
2021/01/04 11:50:06;;;;;;;;;;;;;;;;;;5038511;28;13054;-48
2021/01/04 11:52:31;;;;;;;;;;;;;;;;;;5034962;28;4135;-50
2021/01/04 11:54:57;;;;;;;;;;;;;;;;;;5037659;28;15630;-52
2021/01/04 11:57:22;;;;;;;;;;;;;;;;;;5039514;28;12625;-50
2021/01/04 11:59:47;;;;;;;;;;;;;;;;;;5035262;28;14448;-51
2021/01/04 12:02:12;;;;;;;;;;;;;;;;;;5032297;28;13249;-48
2021/01/04 12:04:38;;;;;;;;;;;;;;;;;;5039547;28;12857;-50
2021/01/04 12:07:03;;;;;;;;;;;;;;;;;;5036644;28;9696;-49
2021/01/04 12:09:29;;;;;;;;;;;;;;;;;;5036803;28;16643;-51
2021/01/04 12:11:54;;;;;;;;;;;;;;;;;;5039631;28;14009;-53
2021/01/04 12:14:20;;;;;;;;;;;;;;;;;;5029020;28;13059;-50
2021/01/04 12:16:46;;;;;;;;;;;;;;;;;;5047690;28;8223;-49
2021/01/04 12:19:11;;;;;;;;;;;;;;;;;;5033105;28;8616;-52
2021/01/04 12:21:36;;;;;;;;;;;;;;;;;;5033687;28;16360;-51
2021/01/04 12:24:02;;;;;;;;;;;;;;;;;;5032745;28;13165;-50
2021/01/04 12:26:28;;;;;;;;;;;;;;;;;;5030805;28;13344;-49
2021/01/04 12:28:54;;;;;;;;;;;;;;;;;;5039930;28;12885;-49
2021/01/04 12:31:19;;;;;;;;;;;;;;;;;;5042284;28;3870;-51
2021/01/04 12:33:44;;;;;;;;;;;;;;;;;;5037377;28;9334;-50
2021/01/04 12:36:20;;;;;;;;;;;;;;;;;;5037367;28;12171;-52
2021/01/04 12:38:46;;;;;;;;;;;;;;;;;;5034270;28;14399;-51
2021/01/04 12:41:11;;;;;;;;;;;;;;;;;;5048209;28;9836;-51
2021/01/04 12:43:36;;;;;;;;;;;;;;;;;;5039744;28;10263;-50
2021/01/04 12:46:02;;;;;;;;;;;;;;;;;;5049002;28;10410;-50
2021/01/04 12:48:29;;;;;;;;;;;;;;;;;;5043369;28;16123;-52
2021/01/04 12:50:54;;;;;;;;;;;;;;;;;;5044946;28;14041;-50
2021/01/04 12:53:20;;;;;;;;;;;;;;;;;;5039660;28;13266;-51
2021/01/04 12:55:45;;;;;;;;;;;;;;;;;;5048565;28;14262;-51
2021/01/04 12:58:10;;;;;;;;;;;;;;;;;;5040500;28;7724;-50
2021/01/04 13:00:37;;;;;;;;;;;;;;;;;;5037025;28;14692;-50
2021/01/04 13:03:02;;;;;;;;;;;;;;;;;;5038860;28;16600;-48
2021/01/04 13:05:28;;;;;;;;;;;;;;;;;;5038103;28;7326;-47
2021/01/04 13:07:53;;;;;;;;;;;;;;;;;;5040499;28;7362;-51
2021/01/04 13:10:18;;;;;;;;;;;;;;;;;;5026702;28;3941;-47
2021/01/04 13:12:44;;;;;;;;;;;;;;;;;;5038994;28;14174;-50
2021/01/04 13:15:10;;;;;;;;;;;;;;;;;;5041298;28;13807;-48
2021/01/04 13:17:35;;;;;;;;;;;;;;;;;;5017744;28;9393;-48
2021/01/04 13:20:02;;;;;;;;;;;;;;;;;;5046084;28;13325;-51
2021/01/04 13:22:29;;;;;;;;;;;;;;;;;;5035534;28;4256;-50
2021/01/04 13:24:54;;;;;;;;;;;;;;;;;;5040401;28;11460;-50
2021/01/04 13:27:19;;;;;;;;;;;;;;;;;;5016793;28;10483;-48
2021/01/04 13:29:45;;;;;;;;;;;;;;;;;;5034701;28;16334;-48
2021/01/04 13:32:11;;;;;;;;;;;;;;;;;;5046381;28;11281;-48
2021/01/04 13:34:36;;;;;;;;;;;;;;;;;;5043400;28;10502;-50
2021/01/04 13:37:03;;;;;;;;;;;;;;;;;;5039573;28;7063;-51
2021/01/04 13:39:28;;;;;;;;;;;;;;;;;;5042627;28;9459;-51
2021/01/04 13:41:56;;;;;;;;;;;;;;;;;;5033944;28;9500;-48
2021/01/04 13:44:21;;;;;;;;;;;;;;;;;;5039661;28;9392;-49
2021/01/04 13:46:47;;;;;;;;;;;;;;;;;;5045212;28;12871;-48
2021/01/04 13:49:13;;;;;;;;;;;;;;;;;;5041440;28;7572;-50
2021/01/04 13:51:43;;;;;;;;;;;;;;;;;;5020456;28;9959;-50
2021/01/04 13:54:09;;;;;;;;;;;;;;;;;;5019223;28;13319;-48
2021/01/04 13:56:34;;;;;;;;;;;;;;;;;;5040370;28;11482;-49
2021/01/04 13:58:59;;;;;;;;;;;;;;;;;;5045527;28;6257;-50
2021/01/04 14:01:25;;;;;;;;;;;;;;;;;;5046500;28;4240;-52
2021/01/04 14:03:51;;;;;;;;;;;;;;;;;;5042359;28;12519;-50
2021/01/04 14:06:17;;;;;;;;;;;;;;;;;;5040704;28;15215;-46
2021/01/04 14:08:42;;;;;;;;;;;;;;;;;;5038270;28;13941;-52
2021/01/04 14:11:07;;;;;;;;;;;;;;;;;;5051794;28;13923;-50
2021/01/04 14:13:33;;;;;;;;;;;;;;;;;;5039659;28;4259;-48
2021/01/04 14:15:58;;;;;;;;;;;;;;;;;;5019510;28;13429;-51
2021/01/04 14:18:24;;;;;;;;;;;;;;;;;;5030208;28;15985;-51
2021/01/04 14:20:49;;;;;;;;;;;;;;;;;;5044588;28;13310;-51
2021/01/04 14:23:14;;;;;;;;;;;;;;;;;;5047796;28;12402;-49
2021/01/04 14:25:40;;;;;;;;;;;;;;;;;;5043865;28;12735;-50
2021/01/04 14:28:06;;;;;;;;;;;;;;;;;;5025587;28;9479;-51
2021/01/04 14:30:31;;;;;;;;;;;;;;;;;;5034036;28;15842;-50
2021/01/04 14:32:56;;;;;;;;;;;;;;;;;;5036216;28;9849;-49
2021/01/04 14:35:22;;;;;;;;;;;;;;;;;;5045308;28;9451;-50
2021/01/04 14:37:47;;;;;;;;;;;;;;;;;;5039993;28;13122;-50
2021/01/04 14:40:13;;;;;;;;;;;;;;;;;;5039194;28;9236;-50
2021/01/04 14:42:38;;;;;;;;;;;;;;;;;;5032609;28;9017;-49
2021/01/04 14:45:05;;;;;;;;;;;;;;;;;;5046592;28;13269;-49
2021/01/04 14:47:34;;;;;;;;;;;;;;;;;;5041091;28;13622;-49
2021/01/04 14:49:59;;;;;;;;;;;;;;;;;;5040650;28;9444;-50
2021/01/04 14:52:25;;;;;;;;;;;;;;;;;;5038268;28;4211;-50
2021/01/04 14:54:51;;;;;;;;;;;;;;;;;;5031243;28;11318;-50
2021/01/04 14:57:17;;;;;;;;;;;;;;;;;;5033588;28;14468;-50
2021/01/04 14:59:44;;;;;;;;;;;;;;;;;;5037878;28;9362;-50
2021/01/04 15:02:10;;;;;;;;;;;;;;;;;;5045642;28;13998;-50
2021/01/04 15:04:35;;;;;;;;;;;;;;;;;;5036958;28;4298;-50
2021/01/04 15:07:01;;;;;;;;;;;;;;;;;;5041138;28;9322;-50
2021/01/04 15:09:26;;;;;;;;;;;;;;;;;;5038591;28;9278;-49
2021/01/04 15:11:53;;;;;;;;;;;;;;;;;;5047438;28;9860;-50
2021/01/04 15:14:19;;;;;;;;;;;;;;;;;;5043077;28;9359;-50
2021/01/04 15:16:45;;;;;;;;;;;;;;;;;;5040319;28;12971;-50
2021/01/04 15:19:11;;;;;;;;;;;;;;;;;;5031184;28;9000;-50
2021/01/04 15:21:37;;;;;;;;;;;;;;;;;;5029196;28;13450;-49
2021/01/04 15:24:02;;;;;;;;;;;;;;;;;;5036956;28;12202;-50
2021/01/04 15:26:28;;;;;;;;;;;;;;;;;;5042955;28;9833;-50
2021/01/04 15:28:53;;;;;;;;;;;;;;;;;;5038797;28;12828;-49
2021/01/04 15:31:18;;;;;;;;;;;;;;;;;;5036710;28;4295;-50
2021/01/04 15:33:44;;;;;;;;;;;;;;;;;;5035824;28;15536;-50
2021/01/04 15:36:09;;;;;;;;;;;;;;;;;;5038546;28;16826;-50
2021/01/04 15:38:35;;;;;;;;;;;;;;;;;;5038937;28;16219;-50
2021/01/04 15:41:00;;;;;;;;;;;;;;;;;;5039862;28;13911;-50
2021/01/04 15:43:26;;;;;;;;;;;;;;;;;;5040616;28;4253;-48
2021/01/04 15:45:51;;;;;;;;;;;;;;;;;;5037432;28;15543;-50
2021/01/04 15:48:17;;;;;;;;;;;;;;;;;;5035246;28;11644;-50
2021/01/04 15:50:42;;;;;;;;;;;;;;;;;;5036963;28;13572;-50
2021/01/04 15:53:07;;;;;;;;;;;;;;;;;;5040399;28;14821;-50
2021/01/04 15:55:33;;;;;;;;;;;;;;;;;;5036576;28;3839;-50
2021/01/04 15:57:58;;;;;;;;;;;;;;;;;;5021915;28;11985;-50
2021/01/04 16:00:23;;;;;;;;;;;;;;;;;;5035366;28;14681;-49
2021/01/04 16:02:49;;;;;;;;;;;;;;;;;;5039296;28;13140;-50
2021/01/04 16:05:14;;;;;;;;;;;;;;;;;;5042259;28;9384;-50
2021/01/04 16:07:39;;;;;;;;;;;;;;;;;;5047859;28;12501;-50
2021/01/04 16:10:08;;;;;;;;;;;;;;;;;;5023647;28;9911;-50
2021/01/04 16:12:33;;;;;;;;;;;;;;;;;;5041922;28;15268;-50
2021/01/04 16:14:58;;;;;;;;;;;;;;;;;;5025041;28;14383;-51
2021/01/04 16:17:24;;;;;;;;;;;;;;;;;;5042924;28;12648;-51
2021/01/04 16:19:49;;;;;;;;;;;;;;;;;;5048796;28;13302;-49
2021/01/04 16:22:14;;;;;;;;;;;;;;;;;;5053124;28;11057;-50
2021/01/04 16:24:40;;;;;;;;;;;;;;;;;;5043470;28;15664;-51
2021/01/04 16:27:05;;;;;;;;;;;;;;;;;;5047064;28;9843;-49
2021/01/04 16:29:31;;;;;;;;;;;;;;;;;;5040860;28;13416;-48
2021/01/04 16:32:01;;;;;;;;;;;;;;;;;;5029902;28;9256;-50
2021/01/04 16:34:27;;;;;;;;;;;;;;;;;;5052783;28;3952;-50
2021/01/04 16:36:54;;;;;;;;;;;;;;;;;;5039105;28;11582;-50
2021/01/04 16:39:20;;;;;;;;;;;;;;;;;;5047370;28;9272;-50
2021/01/04 16:41:45;;;;;;;;;;;;;;;;;;5036939;28;11490;-50
2021/01/04 16:44:11;;;;;;;;;;;;;;;;;;5036354;28;9534;-49
2021/01/04 16:46:36;;;;;;;;;;;;;;;;;;5056085;28;1250;-49
2021/01/04 16:49:02;;;;;;;;;;;;;;;;;;5036701;28;13467;-51
2021/01/04 16:51:27;;;;;;;;;;;;;;;;;;5036840;28;16278;-49
2021/01/04 16:53:53;;;;;;;;;;;;;;;;;;5042109;28;12963;-49
2021/01/04 16:56:19;;;;;;;;;;;;;;;;;;5042475;28;9215;-50
2021/01/04 16:58:44;;;;;;;;;;;;;;;;;;5028819;28;15360;-50
2021/01/04 17:01:09;;;;;;;;;;;;;;;;;;5044287;28;7673;-51
2021/01/04 17:03:35;;;;;;;;;;;;;;;;;;5033749;28;13118;-50
2021/01/04 17:06:00;;;;;;;;;;;;;;;;;;5038015;28;10011;-49
2021/01/04 17:08:25;;;;;;;;;;;;;;;;;;5044360;28;9753;-50
2021/01/04 17:10:51;;;;;;;;;;;;;;;;;;5046231;28;7422;-49
2021/01/04 17:13:16;;;;;;;;;;;;;;;;;;5050144;28;11600;-50
2021/01/04 17:15:42;;;;;;;;;;;;;;;;;;5043952;28;14759;-49